sensor_id;sensor_type;location;lat;lon;timestamp;P1;durP1;ratioP1;P2;durP2;ratioP2
8482;SDS011;4278;42.668;23.312;2023-04-24T00:02:21;9.80;;;7.67;;
8482;SDS011;4278;42.668;23.312;2023-04-24T00:04:49;12.33;;;8.03;;
8482;SDS011;4278;42.668;23.312;2023-04-24T00:07:16;13.53;;;8.80;;
8482;SDS011;4278;42.668;23.312;2023-04-24T00:09:45;14.70;;;8.83;;
8482;SDS011;4278;42.668;23.312;2023-04-24T00:12:12;11.60;;;8.30;;
8482;SDS011;4278;42.668;23.312;2023-04-24T00:14:40;13.73;;;8.40;;
8482;SDS011;4278;42.668;23.312;2023-04-24T00:17:07;13.23;;;8.60;;
8482;SDS011;4278;42.668;23.312;2023-04-24T00:19:33;14.10;;;8.43;;
8482;SDS011;4278;42.668;23.312;2023-04-24T00:22:00;11.97;;;8.23;;
8482;SDS011;4278;42.668;23.312;2023-04-24T00:24:28;15.53;;;8.43;;
8482;SDS011;4278;42.668;23.312;2023-04-24T00:26:55;13.53;;;8.80;;
8482;SDS011;4278;42.668;23.312;2023-04-24T00:29:22;11.77;;;8.20;;
8482;SDS011;4278;42.668;23.312;2023-04-24T00:31:50;10.33;;;7.90;;
8482;SDS011;4278;42.668;23.312;2023-04-24T00:34:17;13.53;;;8.20;;
8482;SDS011;4278;42.668;23.312;2023-04-24T00:36:44;12.23;;;7.30;;
8482;SDS011;4278;42.668;23.312;2023-04-24T00:39:11;10.10;;;6.63;;
8482;SDS011;4278;42.668;23.312;2023-04-24T00:41:37;11.57;;;6.70;;
8482;SDS011;4278;42.668;23.312;2023-04-24T00:44:04;14.97;;;7.10;;
8482;SDS011;4278;42.668;23.312;2023-04-24T00:46:31;11.37;;;6.77;;
8482;SDS011;4278;42.668;23.312;2023-04-24T00:49:00;11.27;;;6.27;;
8482;SDS011;4278;42.668;23.312;2023-04-24T00:51:26;10.47;;;6.53;;
8482;SDS011;4278;42.668;23.312;2023-04-24T00:53:53;8.40;;;6.17;;
8482;SDS011;4278;42.668;23.312;2023-04-24T00:56:20;9.97;;;5.80;;
8482;SDS011;4278;42.668;23.312;2023-04-24T00:58:47;9.57;;;5.33;;
8482;SDS011;4278;42.668;23.312;2023-04-24T01:01:14;11.10;;;5.37;;
8482;SDS011;4278;42.668;23.312;2023-04-24T01:03:41;7.23;;;5.40;;
8482;SDS011;4278;42.668;23.312;2023-04-24T01:06:10;8.43;;;5.10;;
8482;SDS011;4278;42.668;23.312;2023-04-24T01:08:36;6.27;;;5.10;;
8482;SDS011;4278;42.668;23.312;2023-04-24T01:11:06;7.67;;;5.53;;
8482;SDS011;4278;42.668;23.312;2023-04-24T01:13:33;8.53;;;5.50;;
8482;SDS011;4278;42.668;23.312;2023-04-24T01:16:00;8.73;;;5.17;;
8482;SDS011;4278;42.668;23.312;2023-04-24T01:18:27;9.70;;;5.33;;
8482;SDS011;4278;42.668;23.312;2023-04-24T01:20:56;8.83;;;5.80;;
8482;SDS011;4278;42.668;23.312;2023-04-24T01:23:26;8.83;;;5.90;;
8482;SDS011;4278;42.668;23.312;2023-04-24T01:25:53;8.10;;;5.40;;
8482;SDS011;4278;42.668;23.312;2023-04-24T01:28:20;9.93;;;5.73;;
8482;SDS011;4278;42.668;23.312;2023-04-24T01:30:47;8.23;;;5.57;;
8482;SDS011;4278;42.668;23.312;2023-04-24T01:33:14;9.17;;;5.43;;
8482;SDS011;4278;42.668;23.312;2023-04-24T01:35:42;10.77;;;6.00;;
8482;SDS011;4278;42.668;23.312;2023-04-24T01:38:08;6.57;;;5.53;;
8482;SDS011;4278;42.668;23.312;2023-04-24T01:40:37;8.47;;;5.23;;
8482;SDS011;4278;42.668;23.312;2023-04-24T01:43:04;7.33;;;5.20;;
8482;SDS011;4278;42.668;23.312;2023-04-24T01:45:31;7.20;;;5.73;;
8482;SDS011;4278;42.668;23.312;2023-04-24T01:47:58;7.63;;;5.43;;
8482;SDS011;4278;42.668;23.312;2023-04-24T01:50:25;7.27;;;5.50;;
8482;SDS011;4278;42.668;23.312;2023-04-24T01:52:51;7.97;;;5.87;;
8482;SDS011;4278;42.668;23.312;2023-04-24T01:55:18;7.70;;;5.83;;
8482;SDS011;4278;42.668;23.312;2023-04-24T01:57:47;8.87;;;5.70;;
8482;SDS011;4278;42.668;23.312;2023-04-24T02:00:14;10.73;;;6.07;;
8482;SDS011;4278;42.668;23.312;2023-04-24T02:02:41;8.70;;;5.60;;
8482;SDS011;4278;42.668;23.312;2023-04-24T02:05:08;9.57;;;5.63;;
8482;SDS011;4278;42.668;23.312;2023-04-24T02:07:36;9.30;;;5.90;;
8482;SDS011;4278;42.668;23.312;2023-04-24T02:10:03;8.13;;;5.97;;
8482;SDS011;4278;42.668;23.312;2023-04-24T02:12:30;6.60;;;5.27;;
8482;SDS011;4278;42.668;23.312;2023-04-24T02:14:58;10.23;;;5.23;;
8482;SDS011;4278;42.668;23.312;2023-04-24T02:17:25;12.20;;;5.67;;
8482;SDS011;4278;42.668;23.312;2023-04-24T02:19:52;9.47;;;4.77;;
8482;SDS011;4278;42.668;23.312;2023-04-24T02:22:19;7.83;;;4.73;;
8482;SDS011;4278;42.668;23.312;2023-04-24T02:24:46;7.77;;;5.00;;
8482;SDS011;4278;42.668;23.312;2023-04-24T02:27:12;5.93;;;5.13;;
8482;SDS011;4278;42.668;23.312;2023-04-24T02:29:39;6.23;;;4.90;;
8482;SDS011;4278;42.668;23.312;2023-04-24T02:32:08;7.53;;;5.07;;
8482;SDS011;4278;42.668;23.312;2023-04-24T02:34:37;6.93;;;5.17;;
8482;SDS011;4278;42.668;23.312;2023-04-24T02:37:03;9.30;;;5.20;;
8482;SDS011;4278;42.668;23.312;2023-04-24T02:39:30;6.20;;;5.00;;
8482;SDS011;4278;42.668;23.312;2023-04-24T02:41:57;7.73;;;5.70;;
8482;SDS011;4278;42.668;23.312;2023-04-24T02:44:25;7.90;;;5.13;;
8482;SDS011;4278;42.668;23.312;2023-04-24T02:46:52;6.57;;;5.33;;
8482;SDS011;4278;42.668;23.312;2023-04-24T02:49:20;6.60;;;5.27;;
8482;SDS011;4278;42.668;23.312;2023-04-24T02:51:46;9.27;;;5.40;;
8482;SDS011;4278;42.668;23.312;2023-04-24T02:54:13;6.87;;;5.43;;
8482;SDS011;4278;42.668;23.312;2023-04-24T02:56:40;8.33;;;5.80;;
8482;SDS011;4278;42.668;23.312;2023-04-24T02:59:07;6.57;;;5.53;;
8482;SDS011;4278;42.668;23.312;2023-04-24T03:01:33;9.90;;;5.60;;
8482;SDS011;4278;42.668;23.312;2023-04-24T03:04:00;8.83;;;5.23;;
8482;SDS011;4278;42.668;23.312;2023-04-24T03:06:29;8.03;;;5.77;;
8482;SDS011;4278;42.668;23.312;2023-04-24T03:08:56;8.63;;;5.50;;
8482;SDS011;4278;42.668;23.312;2023-04-24T03:11:23;7.53;;;5.17;;
8482;SDS011;4278;42.668;23.312;2023-04-24T03:13:50;8.23;;;5.60;;
8482;SDS011;4278;42.668;23.312;2023-04-24T03:16:17;11.80;;;5.77;;
8482;SDS011;4278;42.668;23.312;2023-04-24T03:18:43;9.43;;;6.10;;
8482;SDS011;4278;42.668;23.312;2023-04-24T03:21:10;7.20;;;5.03;;
8482;SDS011;4278;42.668;23.312;2023-04-24T03:23:39;10.20;;;5.57;;
8482;SDS011;4278;42.668;23.312;2023-04-24T03:26:06;9.07;;;5.87;;
8482;SDS011;4278;42.668;23.312;2023-04-24T03:28:32;12.27;;;6.57;;
8482;SDS011;4278;42.668;23.312;2023-04-24T03:30:59;8.00;;;5.60;;
8482;SDS011;4278;42.668;23.312;2023-04-24T03:33:26;9.00;;;6.60;;
8482;SDS011;4278;42.668;23.312;2023-04-24T03:35:53;10.63;;;6.57;;
8482;SDS011;4278;42.668;23.312;2023-04-24T03:38:19;12.27;;;7.60;;
8482;SDS011;4278;42.668;23.312;2023-04-24T03:40:48;11.60;;;7.13;;
8482;SDS011;4278;42.668;23.312;2023-04-24T03:43:14;10.63;;;7.47;;
8482;SDS011;4278;42.668;23.312;2023-04-24T03:45:41;14.10;;;8.33;;
8482;SDS011;4278;42.668;23.312;2023-04-24T03:48:08;11.67;;;7.50;;
8482;SDS011;4278;42.668;23.312;2023-04-24T03:50:35;11.53;;;8.10;;
8482;SDS011;4278;42.668;23.312;2023-04-24T03:53:02;9.63;;;7.20;;
8482;SDS011;4278;42.668;23.312;2023-04-24T03:55:28;9.80;;;7.30;;
8482;SDS011;4278;42.668;23.312;2023-04-24T03:57:57;11.80;;;7.47;;
8482;SDS011;4278;42.668;23.312;2023-04-24T04:00:23;14.50;;;7.13;;
8482;SDS011;4278;42.668;23.312;2023-04-24T04:02:51;12.77;;;7.87;;
8482;SDS011;4278;42.668;23.312;2023-04-24T04:05:17;9.73;;;7.37;;
8482;SDS011;4278;42.668;23.312;2023-04-24T04:07:44;11.27;;;7.10;;
8482;SDS011;4278;42.668;23.312;2023-04-24T04:10:11;10.03;;;7.13;;
8482;SDS011;4278;42.668;23.312;2023-04-24T04:12:38;11.13;;;6.97;;
8482;SDS011;4278;42.668;23.312;2023-04-24T04:15:06;10.47;;;7.53;;
8482;SDS011;4278;42.668;23.312;2023-04-24T04:17:33;11.17;;;7.30;;
8482;SDS011;4278;42.668;23.312;2023-04-24T04:20:00;10.07;;;7.87;;
8482;SDS011;4278;42.668;23.312;2023-04-24T04:22:32;10.00;;;6.90;;
8482;SDS011;4278;42.668;23.312;2023-04-24T04:24:58;13.80;;;7.70;;
8482;SDS011;4278;42.668;23.312;2023-04-24T04:27:25;11.60;;;7.87;;
8482;SDS011;4278;42.668;23.312;2023-04-24T04:29:53;11.77;;;7.57;;
8482;SDS011;4278;42.668;23.312;2023-04-24T04:32:23;14.43;;;6.97;;
8482;SDS011;4278;42.668;23.312;2023-04-24T04:34:49;11.87;;;7.37;;
8482;SDS011;4278;42.668;23.312;2023-04-24T04:37:18;11.10;;;6.60;;
8482;SDS011;4278;42.668;23.312;2023-04-24T04:39:45;10.23;;;6.80;;
8482;SDS011;4278;42.668;23.312;2023-04-24T04:42:12;14.43;;;7.97;;
8482;SDS011;4278;42.668;23.312;2023-04-24T04:44:40;10.73;;;6.80;;
8482;SDS011;4278;42.668;23.312;2023-04-24T04:47:07;10.00;;;6.83;;
8482;SDS011;4278;42.668;23.312;2023-04-24T04:49:37;8.27;;;6.13;;
8482;SDS011;4278;42.668;23.312;2023-04-24T04:52:04;9.43;;;6.30;;
8482;SDS011;4278;42.668;23.312;2023-04-24T04:54:31;9.17;;;5.97;;
8482;SDS011;4278;42.668;23.312;2023-04-24T04:56:58;11.60;;;5.90;;
8482;SDS011;4278;42.668;23.312;2023-04-24T04:59:25;7.13;;;5.50;;
8482;SDS011;4278;42.668;23.312;2023-04-24T05:01:53;7.47;;;5.13;;
8482;SDS011;4278;42.668;23.312;2023-04-24T05:04:19;6.90;;;5.00;;
8482;SDS011;4278;42.668;23.312;2023-04-24T05:06:48;6.10;;;4.23;;
8482;SDS011;4278;42.668;23.312;2023-04-24T05:09:16;8.73;;;4.80;;
8482;SDS011;4278;42.668;23.312;2023-04-24T05:11:43;12.40;;;6.57;;
8482;SDS011;4278;42.668;23.312;2023-04-24T05:14:09;8.50;;;5.33;;
8482;SDS011;4278;42.668;23.312;2023-04-24T05:16:37;9.87;;;5.13;;
8482;SDS011;4278;42.668;23.312;2023-04-24T05:19:04;6.57;;;4.50;;
8482;SDS011;4278;42.668;23.312;2023-04-24T05:21:31;8.10;;;5.20;;
8482;SDS011;4278;42.668;23.312;2023-04-24T05:23:59;7.77;;;4.80;;
8482;SDS011;4278;42.668;23.312;2023-04-24T05:26:26;8.57;;;5.20;;
8482;SDS011;4278;42.668;23.312;2023-04-24T05:28:53;7.60;;;4.87;;
8482;SDS011;4278;42.668;23.312;2023-04-24T05:31:20;6.00;;;4.67;;
8482;SDS011;4278;42.668;23.312;2023-04-24T05:33:46;8.37;;;5.17;;
8482;SDS011;4278;42.668;23.312;2023-04-24T05:36:13;6.40;;;4.60;;
8482;SDS011;4278;42.668;23.312;2023-04-24T05:38:40;6.37;;;4.40;;
8482;SDS011;4278;42.668;23.312;2023-04-24T05:41:09;6.97;;;5.37;;
8482;SDS011;4278;42.668;23.312;2023-04-24T05:43:35;11.23;;;5.13;;
8482;SDS011;4278;42.668;23.312;2023-04-24T05:46:02;7.03;;;4.73;;
8482;SDS011;4278;42.668;23.312;2023-04-24T05:48:29;10.53;;;5.50;;
8482;SDS011;4278;42.668;23.312;2023-04-24T05:50:56;8.90;;;4.57;;
8482;SDS011;4278;42.668;23.312;2023-04-24T05:53:23;7.10;;;5.40;;
8482;SDS011;4278;42.668;23.312;2023-04-24T05:55:50;16.67;;;5.93;;
8482;SDS011;4278;42.668;23.312;2023-04-24T05:58:18;11.43;;;5.83;;
8482;SDS011;4278;42.668;23.312;2023-04-24T06:00:45;10.77;;;5.90;;
8482;SDS011;4278;42.668;23.312;2023-04-24T06:03:12;11.40;;;6.30;;
8482;SDS011;4278;42.668;23.312;2023-04-24T06:05:38;8.97;;;6.00;;
8482;SDS011;4278;42.668;23.312;2023-04-24T06:08:05;9.70;;;6.27;;
8482;SDS011;4278;42.668;23.312;2023-04-24T06:10:32;8.07;;;6.13;;
8482;SDS011;4278;42.668;23.312;2023-04-24T06:12:59;12.67;;;6.60;;
8482;SDS011;4278;42.668;23.312;2023-04-24T06:15:29;9.33;;;5.97;;
8482;SDS011;4278;42.668;23.312;2023-04-24T06:17:56;12.23;;;6.60;;
8482;SDS011;4278;42.668;23.312;2023-04-24T06:20:23;11.67;;;6.57;;
8482;SDS011;4278;42.668;23.312;2023-04-24T06:22:51;11.80;;;7.57;;
8482;SDS011;4278;42.668;23.312;2023-04-24T06:25:17;9.20;;;7.10;;
8482;SDS011;4278;42.668;23.312;2023-04-24T06:27:45;8.70;;;6.60;;
8482;SDS011;4278;42.668;23.312;2023-04-24T06:30:14;11.50;;;7.40;;
8482;SDS011;4278;42.668;23.312;2023-04-24T06:32:43;11.27;;;7.20;;
8482;SDS011;4278;42.668;23.312;2023-04-24T06:35:14;10.27;;;7.57;;
8482;SDS011;4278;42.668;23.312;2023-04-24T06:37:41;10.07;;;6.93;;
8482;SDS011;4278;42.668;23.312;2023-04-24T06:40:09;11.27;;;7.17;;
8482;SDS011;4278;42.668;23.312;2023-04-24T06:42:36;14.53;;;8.23;;
8482;SDS011;4278;42.668;23.312;2023-04-24T06:45:06;11.80;;;7.70;;
8482;SDS011;4278;42.668;23.312;2023-04-24T06:47:33;8.23;;;6.80;;
8482;SDS011;4278;42.668;23.312;2023-04-24T06:50:02;11.00;;;7.10;;
8482;SDS011;4278;42.668;23.312;2023-04-24T06:52:29;13.93;;;7.77;;
8482;SDS011;4278;42.668;23.312;2023-04-24T06:54:59;14.00;;;7.80;;
8482;SDS011;4278;42.668;23.312;2023-04-24T06:57:29;13.70;;;8.43;;
8482;SDS011;4278;42.668;23.312;2023-04-24T06:59:57;12.83;;;8.17;;
8482;SDS011;4278;42.668;23.312;2023-04-24T07:02:24;15.77;;;8.10;;
8482;SDS011;4278;42.668;23.312;2023-04-24T07:04:51;10.37;;;7.27;;
8482;SDS011;4278;42.668;23.312;2023-04-24T07:07:19;8.50;;;6.63;;
8482;SDS011;4278;42.668;23.312;2023-04-24T07:09:46;10.83;;;7.97;;
8482;SDS011;4278;42.668;23.312;2023-04-24T07:12:13;13.80;;;7.70;;
8482;SDS011;4278;42.668;23.312;2023-04-24T07:14:42;11.80;;;7.07;;
8482;SDS011;4278;42.668;23.312;2023-04-24T07:17:08;8.47;;;6.63;;
8482;SDS011;4278;42.668;23.312;2023-04-24T07:19:35;9.73;;;7.28;;
8482;SDS011;4278;42.668;23.312;2023-04-24T07:22:04;14.48;;;7.20;;
8482;SDS011;4278;42.668;23.312;2023-04-24T07:24:32;12.68;;;7.95;;
8482;SDS011;4278;42.668;23.312;2023-04-24T07:26:59;10.02;;;7.90;;
8482;SDS011;4278;42.668;23.312;2023-04-24T07:29:27;16.65;;;8.90;;
8482;SDS011;4278;42.668;23.312;2023-04-24T07:31:53;10.73;;;7.85;;
8482;SDS011;4278;42.668;23.312;2023-04-24T07:34:21;14.00;;;8.65;;
8482;SDS011;4278;42.668;23.312;2023-04-24T07:36:48;10.85;;;7.35;;
8482;SDS011;4278;42.668;23.312;2023-04-24T07:39:15;11.27;;;6.47;;
8482;SDS011;4278;42.668;23.312;2023-04-24T07:41:43;8.95;;;6.47;;
8482;SDS011;4278;42.668;23.312;2023-04-24T07:44:10;8.63;;;6.63;;
8482;SDS011;4278;42.668;23.312;2023-04-24T07:46:37;11.02;;;6.65;;
8482;SDS011;4278;42.668;23.312;2023-04-24T07:49:04;10.23;;;6.85;;
8482;SDS011;4278;42.668;23.312;2023-04-24T07:51:31;13.23;;;6.78;;
8482;SDS011;4278;42.668;23.312;2023-04-24T07:54:03;9.48;;;6.70;;
8482;SDS011;4278;42.668;23.312;2023-04-24T07:56:30;9.85;;;6.80;;
8482;SDS011;4278;42.668;23.312;2023-04-24T07:58:59;11.48;;;7.07;;
8482;SDS011;4278;42.668;23.312;2023-04-24T08:01:26;11.93;;;7.00;;
8482;SDS011;4278;42.668;23.312;2023-04-24T08:03:53;8.88;;;6.65;;
8482;SDS011;4278;42.668;23.312;2023-04-24T08:06:20;11.32;;;6.57;;
8482;SDS011;4278;42.668;23.312;2023-04-24T08:08:47;8.30;;;6.82;;
8482;SDS011;4278;42.668;23.312;2023-04-24T08:11:14;9.73;;;6.97;;
8482;SDS011;4278;42.668;23.312;2023-04-24T08:13:40;14.52;;;10.95;;
8482;SDS011;4278;42.668;23.312;2023-04-24T08:16:09;10.10;;;6.90;;
8482;SDS011;4278;42.668;23.312;2023-04-24T08:18:36;12.27;;;6.57;;
8482;SDS011;4278;42.668;23.312;2023-04-24T08:21:03;14.93;;;6.57;;
8482;SDS011;4278;42.668;23.312;2023-04-24T08:23:30;8.63;;;6.07;;
8482;SDS011;4278;42.668;23.312;2023-04-24T08:25:57;7.75;;;6.50;;
8482;SDS011;4278;42.668;23.312;2023-04-24T08:28:24;9.50;;;6.40;;
8482;SDS011;4278;42.668;23.312;2023-04-24T08:30:51;11.45;;;6.10;;
8482;SDS011;4278;42.668;23.312;2023-04-24T08:33:21;9.68;;;6.55;;
8482;SDS011;4278;42.668;23.312;2023-04-24T08:35:48;8.63;;;6.30;;
8482;SDS011;4278;42.668;23.312;2023-04-24T08:38:15;9.70;;;5.90;;
8482;SDS011;4278;42.668;23.312;2023-04-24T08:40:42;16.42;;;5.80;;
8482;SDS011;4278;42.668;23.312;2023-04-24T08:43:11;8.52;;;5.88;;
8482;SDS011;4278;42.668;23.312;2023-04-24T08:45:39;8.25;;;5.30;;
8482;SDS011;4278;42.668;23.312;2023-04-24T08:48:06;9.48;;;5.35;;
8482;SDS011;4278;42.668;23.312;2023-04-24T08:50:36;9.88;;;7.20;;
8482;SDS011;4278;42.668;23.312;2023-04-24T08:53:03;10.90;;;6.10;;
8482;SDS011;4278;42.668;23.312;2023-04-24T08:55:31;7.45;;;5.25;;
8482;SDS011;4278;42.668;23.312;2023-04-24T08:57:59;10.15;;;6.43;;
8482;SDS011;4278;42.668;23.312;2023-04-24T09:00:29;8.98;;;5.18;;
8482;SDS011;4278;42.668;23.312;2023-04-24T09:02:56;6.97;;;5.40;;
8482;SDS011;4278;42.668;23.312;2023-04-24T09:05:26;8.70;;;5.45;;
8482;SDS011;4278;42.668;23.312;2023-04-24T09:07:56;12.73;;;8.05;;
8482;SDS011;4278;42.668;23.312;2023-04-24T09:10:23;6.90;;;4.88;;
8482;SDS011;4278;42.668;23.312;2023-04-24T09:12:51;9.02;;;5.10;;
8482;SDS011;4278;42.668;23.312;2023-04-24T09:15:18;8.57;;;5.68;;
8482;SDS011;4278;42.668;23.312;2023-04-24T09:17:46;9.00;;;5.70;;
8482;SDS011;4278;42.668;23.312;2023-04-24T09:20:13;7.00;;;5.70;;
8482;SDS011;4278;42.668;23.312;2023-04-24T09:22:40;7.53;;;4.85;;
8482;SDS011;4278;42.668;23.312;2023-04-24T09:25:09;7.47;;;4.97;;
8482;SDS011;4278;42.668;23.312;2023-04-24T09:27:41;12.38;;;5.60;;
8482;SDS011;4278;42.668;23.312;2023-04-24T09:30:08;6.47;;;5.00;;
8482;SDS011;4278;42.668;23.312;2023-04-24T09:32:36;13.57;;;5.85;;
8482;SDS011;4278;42.668;23.312;2023-04-24T09:35:07;9.52;;;5.05;;
8482;SDS011;4278;42.668;23.312;2023-04-24T09:37:36;12.48;;;5.53;;
8482;SDS011;4278;42.668;23.312;2023-04-24T09:40:07;10.13;;;5.30;;
8482;SDS011;4278;42.668;23.312;2023-04-24T09:42:37;6.03;;;5.05;;
8482;SDS011;4278;42.668;23.312;2023-04-24T09:45:10;6.50;;;4.55;;
8482;SDS011;4278;42.668;23.312;2023-04-24T09:47:41;13.68;;;5.07;;
8482;SDS011;4278;42.668;23.312;2023-04-24T09:50:12;7.60;;;4.88;;
8482;SDS011;4278;42.668;23.312;2023-04-24T09:52:40;9.23;;;4.85;;
8482;SDS011;4278;42.668;23.312;2023-04-24T09:55:13;8.63;;;4.60;;
8482;SDS011;4278;42.668;23.312;2023-04-24T09:57:50;5.72;;;4.38;;
8482;SDS011;4278;42.668;23.312;2023-04-24T10:00:18;9.20;;;4.93;;
8482;SDS011;4278;42.668;23.312;2023-04-24T10:02:54;8.02;;;5.15;;
8482;SDS011;4278;42.668;23.312;2023-04-24T10:05:26;5.80;;;4.47;;
8482;SDS011;4278;42.668;23.312;2023-04-24T10:07:57;8.57;;;4.32;;
8482;SDS011;4278;42.668;23.312;2023-04-24T10:10:33;6.43;;;4.60;;
8482;SDS011;4278;42.668;23.312;2023-04-24T10:13:03;7.13;;;4.70;;
8482;SDS011;4278;42.668;23.312;2023-04-24T10:15:30;7.22;;;4.43;;
8482;SDS011;4278;42.668;23.312;2023-04-24T10:17:58;7.03;;;4.35;;
8482;SDS011;4278;42.668;23.312;2023-04-24T10:20:26;4.70;;;4.10;;
8482;SDS011;4278;42.668;23.312;2023-04-24T10:22:56;7.80;;;4.32;;
8482;SDS011;4278;42.668;23.312;2023-04-24T10:25:25;4.82;;;4.00;;
8482;SDS011;4278;42.668;23.312;2023-04-24T10:27:54;8.20;;;4.13;;
8482;SDS011;4278;42.668;23.312;2023-04-24T10:30:25;5.20;;;3.80;;
8482;SDS011;4278;42.668;23.312;2023-04-24T10:32:52;6.13;;;4.40;;
8482;SDS011;4278;42.668;23.312;2023-04-24T10:35:19;4.97;;;3.67;;
8482;SDS011;4278;42.668;23.312;2023-04-24T10:37:48;5.68;;;4.30;;
8482;SDS011;4278;42.668;23.312;2023-04-24T10:40:18;7.22;;;3.90;;
8482;SDS011;4278;42.668;23.312;2023-04-24T10:42:51;5.88;;;3.92;;
8482;SDS011;4278;42.668;23.312;2023-04-24T10:45:21;4.57;;;3.75;;
8482;SDS011;4278;42.668;23.312;2023-04-24T10:47:52;9.90;;;4.32;;
8482;SDS011;4278;42.668;23.312;2023-04-24T10:50:27;6.30;;;4.30;;
8482;SDS011;4278;42.668;23.312;2023-04-24T10:53:04;7.95;;;4.57;;
8482;SDS011;4278;42.668;23.312;2023-04-24T10:58:21;7.03;;;4.35;;
8482;SDS011;4278;42.668;23.312;2023-04-24T11:00:56;6.22;;;3.95;;
8482;SDS011;4278;42.668;23.312;2023-04-24T11:03:25;7.03;;;4.25;;
8482;SDS011;4278;42.668;23.312;2023-04-24T11:05:55;6.93;;;3.72;;
8482;SDS011;4278;42.668;23.312;2023-04-24T11:08:24;4.57;;;3.88;;
8482;SDS011;4278;42.668;23.312;2023-04-24T11:10:59;7.70;;;5.30;;
8482;SDS011;4278;42.668;23.312;2023-04-24T11:16:32;6.15;;;4.70;;
8482;SDS011;4278;42.668;23.312;2023-04-24T11:19:03;8.13;;;4.63;;
8482;SDS011;4278;42.668;23.312;2023-04-24T11:21:33;6.88;;;4.22;;
8482;SDS011;4278;42.668;23.312;2023-04-24T11:26:58;4.15;;;3.22;;
8482;SDS011;4278;42.668;23.312;2023-04-24T11:29:47;5.32;;;3.72;;
8482;SDS011;4278;42.668;23.312;2023-04-24T11:32:23;7.80;;;3.90;;
8482;SDS011;4278;42.668;23.312;2023-04-24T11:34:52;5.88;;;3.92;;
8482;SDS011;4278;42.668;23.312;2023-04-24T11:37:21;4.20;;;3.60;;
8482;SDS011;4278;42.668;23.312;2023-04-24T11:39:50;4.00;;;3.60;;
8482;SDS011;4278;42.668;23.312;2023-04-24T11:42:18;4.60;;;3.05;;
8482;SDS011;4278;42.668;23.312;2023-04-24T11:44:46;3.53;;;3.15;;
8482;SDS011;4278;42.668;23.312;2023-04-24T11:47:13;4.50;;;3.53;;
8482;SDS011;4278;42.668;23.312;2023-04-24T11:49:41;11.68;;;3.60;;
8482;SDS011;4278;42.668;23.312;2023-04-24T11:52:08;3.90;;;3.55;;
8482;SDS011;4278;42.668;23.312;2023-04-24T11:54:36;6.15;;;3.47;;
8482;SDS011;4278;42.668;23.312;2023-04-24T11:57:03;7.25;;;3.83;;
8482;SDS011;4278;42.668;23.312;2023-04-24T11:59:35;5.55;;;3.47;;
8482;SDS011;4278;42.668;23.312;2023-04-24T12:02:02;4.95;;;4.07;;
8482;SDS011;4278;42.668;23.312;2023-04-24T12:04:38;8.07;;;4.18;;
8482;SDS011;4278;42.668;23.312;2023-04-24T12:07:07;3.90;;;3.53;;
8482;SDS011;4278;42.668;23.312;2023-04-24T12:09:41;6.57;;;4.10;;
8482;SDS011;4278;42.668;23.312;2023-04-24T12:12:08;4.75;;;4.13;;
8482;SDS011;4278;42.668;23.312;2023-04-24T12:14:42;5.90;;;4.38;;
8482;SDS011;4278;42.668;23.312;2023-04-24T12:17:14;3.95;;;3.38;;
8482;SDS011;4278;42.668;23.312;2023-04-24T12:19:44;3.45;;;3.13;;
8482;SDS011;4278;42.668;23.312;2023-04-24T12:22:14;4.05;;;3.13;;
8482;SDS011;4278;42.668;23.312;2023-04-24T12:27:29;8.10;;;5.05;;
8482;SDS011;4278;42.668;23.312;2023-04-24T12:29:57;6.25;;;4.07;;
8482;SDS011;4278;42.668;23.312;2023-04-24T12:32:25;6.95;;;4.00;;
8482;SDS011;4278;42.668;23.312;2023-04-24T12:34:52;4.90;;;4.10;;
8482;SDS011;4278;42.668;23.312;2023-04-24T12:37:21;8.50;;;4.05;;
8482;SDS011;4278;42.668;23.312;2023-04-24T12:39:59;6.65;;;3.30;;
8482;SDS011;4278;42.668;23.312;2023-04-24T12:42:27;5.22;;;3.45;;
8482;SDS011;4278;42.668;23.312;2023-04-24T12:44:57;3.42;;;2.97;;
8482;SDS011;4278;42.668;23.312;2023-04-24T12:47:26;6.35;;;3.97;;
8482;SDS011;4278;42.668;23.312;2023-04-24T12:49:53;15.95;;;5.30;;
8482;SDS011;4278;42.668;23.312;2023-04-24T12:52:22;5.60;;;3.15;;
8482;SDS011;4278;42.668;23.312;2023-04-24T12:54:52;8.45;;;3.75;;
8482;SDS011;4278;42.668;23.312;2023-04-24T12:57:20;4.53;;;4.05;;
8482;SDS011;4278;42.668;23.312;2023-04-24T12:59:47;5.68;;;3.72;;
8482;SDS011;4278;42.668;23.312;2023-04-24T13:02:13;3.78;;;3.47;;
8482;SDS011;4278;42.668;23.312;2023-04-24T13:04:42;8.50;;;3.97;;
8482;SDS011;4278;42.668;23.312;2023-04-24T13:07:10;4.35;;;3.38;;
8482;SDS011;4278;42.668;23.312;2023-04-24T13:09:39;4.30;;;3.50;;
8482;SDS011;4278;42.668;23.312;2023-04-24T13:12:06;4.65;;;3.45;;
8482;SDS011;4278;42.668;23.312;2023-04-24T13:14:33;3.38;;;3.08;;
8482;SDS011;4278;42.668;23.312;2023-04-24T13:17:00;4.15;;;3.50;;
8482;SDS011;4278;42.668;23.312;2023-04-24T13:19:27;4.85;;;3.60;;
8482;SDS011;4278;42.668;23.312;2023-04-24T13:21:55;7.13;;;4.00;;
8482;SDS011;4278;42.668;23.312;2023-04-24T13:24:24;10.05;;;4.10;;
8482;SDS011;4278;42.668;23.312;2023-04-24T13:26:52;4.53;;;3.67;;
8482;SDS011;4278;42.668;23.312;2023-04-24T13:29:19;3.97;;;2.92;;
8482;SDS011;4278;42.668;23.312;2023-04-24T13:31:46;9.05;;;3.70;;
8482;SDS011;4278;42.668;23.312;2023-04-24T13:34:14;3.70;;;3.40;;
8482;SDS011;4278;42.668;23.312;2023-04-24T13:36:41;5.55;;;3.75;;
8482;SDS011;4278;42.668;23.312;2023-04-24T13:39:08;5.50;;;3.80;;
8482;SDS011;4278;42.668;23.312;2023-04-24T13:41:35;4.88;;;3.47;;
8482;SDS011;4278;42.668;23.312;2023-04-24T13:44:04;5.63;;;3.63;;
8482;SDS011;4278;42.668;23.312;2023-04-24T13:46:31;7.22;;;3.85;;
8482;SDS011;4278;42.668;23.312;2023-04-24T13:48:58;5.35;;;3.80;;
8482;SDS011;4278;42.668;23.312;2023-04-24T13:51:25;4.28;;;3.55;;
8482;SDS011;4278;42.668;23.312;2023-04-24T13:53:53;6.28;;;3.85;;
8482;SDS011;4278;42.668;23.312;2023-04-24T13:56:20;6.25;;;3.72;;
8482;SDS011;4278;42.668;23.312;2023-04-24T13:58:47;8.35;;;4.28;;
8482;SDS011;4278;42.668;23.312;2023-04-24T14:01:15;7.07;;;3.85;;
8482;SDS011;4278;42.668;23.312;2023-04-24T14:03:42;4.75;;;4.13;;
8482;SDS011;4278;42.668;23.312;2023-04-24T14:06:09;6.15;;;3.83;;
8482;SDS011;4278;42.668;23.312;2023-04-24T14:08:36;4.43;;;3.40;;
8482;SDS011;4278;42.668;23.312;2023-04-24T14:11:03;4.38;;;3.55;;
8482;SDS011;4278;42.668;23.312;2023-04-24T14:13:30;5.90;;;3.70;;
8482;SDS011;4278;42.668;23.312;2023-04-24T14:15:57;6.95;;;3.55;;
8482;SDS011;4278;42.668;23.312;2023-04-24T14:18:26;4.88;;;3.63;;
8482;SDS011;4278;42.668;23.312;2023-04-24T14:20:53;4.63;;;3.53;;
8482;SDS011;4278;42.668;23.312;2023-04-24T14:23:19;5.30;;;3.63;;
8482;SDS011;4278;42.668;23.312;2023-04-24T14:25:46;6.30;;;4.20;;
8482;SDS011;4278;42.668;23.312;2023-04-24T14:28:16;3.55;;;3.17;;
8482;SDS011;4278;42.668;23.312;2023-04-24T14:30:44;4.90;;;4.03;;
8482;SDS011;4278;42.668;23.312;2023-04-24T14:33:10;4.93;;;4.43;;
8482;SDS011;4278;42.668;23.312;2023-04-24T14:35:40;5.93;;;4.20;;
8482;SDS011;4278;42.668;23.312;2023-04-24T14:38:08;4.90;;;3.45;;
8482;SDS011;4278;42.668;23.312;2023-04-24T14:40:39;5.15;;;3.70;;
8482;SDS011;4278;42.668;23.312;2023-04-24T14:43:06;4.28;;;3.70;;
8482;SDS011;4278;42.668;23.312;2023-04-24T14:45:33;4.32;;;3.28;;
8482;SDS011;4278;42.668;23.312;2023-04-24T14:48:00;4.85;;;3.95;;
8482;SDS011;4278;42.668;23.312;2023-04-24T14:50:27;6.07;;;4.53;;
8482;SDS011;4278;42.668;23.312;2023-04-24T14:52:55;6.72;;;4.40;;
8482;SDS011;4278;42.668;23.312;2023-04-24T14:55:23;6.05;;;3.67;;
8482;SDS011;4278;42.668;23.312;2023-04-24T14:57:51;4.50;;;3.60;;
8482;SDS011;4278;42.668;23.312;2023-04-24T15:00:18;5.50;;;3.72;;
8482;SDS011;4278;42.668;23.312;2023-04-24T15:02:48;5.93;;;3.87;;
8482;SDS011;4278;42.668;23.312;2023-04-24T15:05:15;4.57;;;3.65;;
8482;SDS011;4278;42.668;23.312;2023-04-24T15:07:42;4.77;;;4.10;;
8482;SDS011;4278;42.668;23.312;2023-04-24T15:10:10;5.77;;;4.33;;
8482;SDS011;4278;42.668;23.312;2023-04-24T15:12:37;6.13;;;4.20;;
8482;SDS011;4278;42.668;23.312;2023-04-24T15:15:04;18.63;;;4.67;;